Details for Ryanair at LEBL




Go Back


Latest METAR
Local Time

LEBL 240730Z 29003KT 250V360 9000 NSC 20/16 Q1018 NOSIG

24/05/2018, 10:02:54

Description
Results
Ryanair Logo
Number of Pilots based at LEBL
0 Pilots Based here
Number of Ryanair Flights Departed from LEBL
8 Flights Departed
Number of Ryanair Flights Arrived at LEBL
11 Flights Arrived
Number of Ryanair Schedules Departing from LEBL
145 Schedules
Number of Ryanair Schedules Arriving at LEBL
141 Schedules
Number of Ryanair Schedules Departing from LEBL availible today
67 Schedules Today
Number of Ryanair Schedules Arriving at LEBL availible today
65 Schedules Today
Average Landing Rate at LEBL
-195 fpm
Ryanair Average Landing Rate at LEBL
-208 fpm
Total Fuel Purchased at LEBL by Ryanair
46,125.52 kgs / 101,688.32 lbs

Pilots Based at LEBL


Pilot ID
Pilot Name
Pilot Rank
No. of Flights
No. of Flying Hours
There are no pilots assigned to this hub!   Will you be the first?
Content